sensor_id;sensor_type;location;lat;lon;timestamp;pressure;altitude;pressure_sealevel;temperature
68510;BMP180;55512;50.102;19.958;2023-09-19T00:00:20;98170.60;;;19.40
68510;BMP180;55512;50.102;19.958;2023-09-19T00:02:56;98174.60;;;19.40
68510;BMP180;55512;50.102;19.958;2023-09-19T00:05:29;98168.40;;;19.40
68510;BMP180;55512;50.102;19.958;2023-09-19T00:07:57;98170.40;;;19.40
68510;BMP180;55512;50.102;19.958;2023-09-19T00:10:26;98167.40;;;19.50
68510;BMP180;55512;50.102;19.958;2023-09-19T00:12:55;98166.80;;;19.50
68510;BMP180;55512;50.102;19.958;2023-09-19T00:15:25;98168.40;;;19.50
68510;BMP180;55512;50.102;19.958;2023-09-19T00:17:54;98169.80;;;19.50
68510;BMP180;55512;50.102;19.958;2023-09-19T00:20:20;98168.20;;;19.50
68510;BMP180;55512;50.102;19.958;2023-09-19T00:22:48;98161.20;;;19.50
68510;BMP180;55512;50.102;19.958;2023-09-19T00:25:14;98161.20;;;19.50
68510;BMP180;55512;50.102;19.958;2023-09-19T00:27:41;98161.20;;;19.50
68510;BMP180;55512;50.102;19.958;2023-09-19T00:30:12;98160.40;;;19.50
68510;BMP180;55512;50.102;19.958;2023-09-19T00:32:50;98161.20;;;19.50
68510;BMP180;55512;50.102;19.958;2023-09-19T00:35:21;98152.20;;;19.50
68510;BMP180;55512;50.102;19.958;2023-09-19T00:37:51;98151.20;;;19.50
68510;BMP180;55512;50.102;19.958;2023-09-19T00:40:20;98147.40;;;19.50
68510;BMP180;55512;50.102;19.958;2023-09-19T00:42:48;98145.60;;;19.50
68510;BMP180;55512;50.102;19.958;2023-09-19T00:45:16;98150.60;;;19.50
68510;BMP180;55512;50.102;19.958;2023-09-19T00:47:46;98152.00;;;19.50
68510;BMP180;55512;50.102;19.958;2023-09-19T00:50:13;98147.60;;;19.50
68510;BMP180;55512;50.102;19.958;2023-09-19T00:52:42;98154.20;;;19.50
68510;BMP180;55512;50.102;19.958;2023-09-19T00:55:09;98155.40;;;19.50
68510;BMP180;55512;50.102;19.958;2023-09-19T00:57:38;98154.00;;;19.54
68510;BMP180;55512;50.102;19.958;2023-09-19T01:00:06;98157.20;;;19.58
68510;BMP180;55512;50.102;19.958;2023-09-19T01:02:33;98154.00;;;19.50
68510;BMP180;55512;50.102;19.958;2023-09-19T01:04:59;98147.00;;;19.56
68510;BMP180;55512;50.102;19.958;2023-09-19T01:07:31;98139.40;;;19.50
68510;BMP180;55512;50.102;19.958;2023-09-19T01:09:59;98151.80;;;19.50
68510;BMP180;55512;50.102;19.958;2023-09-19T01:13:11;98152.40;;;19.52
68510;BMP180;55512;50.102;19.958;2023-09-19T01:15:55;98147.20;;;19.60
68510;BMP180;55512;50.102;19.958;2023-09-19T01:21:26;98149.80;;;19.60
68510;BMP180;55512;50.102;19.958;2023-09-19T01:30:18;98132.40;;;19.50
68510;BMP180;55512;50.102;19.958;2023-09-19T01:32:50;98126.20;;;19.50
68510;BMP180;55512;50.102;19.958;2023-09-19T01:35:18;98128.60;;;19.46
68510;BMP180;55512;50.102;19.958;2023-09-19T01:37:44;98125.80;;;19.40
68510;BMP180;55512;50.102;19.958;2023-09-19T01:40:16;98127.40;;;19.40
68510;BMP180;55512;50.102;19.958;2023-09-19T01:46:03;98120.40;;;19.40
68510;BMP180;55512;50.102;19.958;2023-09-19T01:48:45;98114.60;;;19.40
68510;BMP180;55512;50.102;19.958;2023-09-19T01:51:34;98105.80;;;19.40
68510;BMP180;55512;50.102;19.958;2023-09-19T01:54:09;98111.40;;;19.40
68510;BMP180;55512;50.102;19.958;2023-09-19T01:56:48;98106.80;;;19.30
68510;BMP180;55512;50.102;19.958;2023-09-19T01:59:25;98109.40;;;19.30
68510;BMP180;55512;50.102;19.958;2023-09-19T02:01:56;98111.80;;;19.30
68510;BMP180;55512;50.102;19.958;2023-09-19T02:04:23;98110.40;;;19.30
68510;BMP180;55512;50.102;19.958;2023-09-19T02:06:48;98107.20;;;19.20
68510;BMP180;55512;50.102;19.958;2023-09-19T02:09:16;98103.60;;;19.20
68510;BMP180;55512;50.102;19.958;2023-09-19T02:11:42;98107.40;;;19.16
68510;BMP180;55512;50.102;19.958;2023-09-19T02:14:08;98111.40;;;19.10
68510;BMP180;55512;50.102;19.958;2023-09-19T02:16:34;98111.00;;;19.10
68510;BMP180;55512;50.102;19.958;2023-09-19T02:19:00;98111.60;;;19.10
68510;BMP180;55512;50.102;19.958;2023-09-19T02:21:26;98110.20;;;19.10
68510;BMP180;55512;50.102;19.958;2023-09-19T02:23:56;98116.00;;;19.10
68510;BMP180;55512;50.102;19.958;2023-09-19T02:26:21;98115.20;;;19.10
68510;BMP180;55512;50.102;19.958;2023-09-19T02:28:50;98111.20;;;19.10
68510;BMP180;55512;50.102;19.958;2023-09-19T02:31:15;98106.20;;;19.10
68510;BMP180;55512;50.102;19.958;2023-09-19T02:33:41;98104.20;;;19.10
68510;BMP180;55512;50.102;19.958;2023-09-19T02:36:07;98096.20;;;19.10
68510;BMP180;55512;50.102;19.958;2023-09-19T02:38:34;98097.00;;;19.10
68510;BMP180;55512;50.102;19.958;2023-09-19T02:40:59;98093.00;;;19.10
68510;BMP180;55512;50.102;19.958;2023-09-19T02:43:25;98091.00;;;19.08
68510;BMP180;55512;50.102;19.958;2023-09-19T02:45:51;98087.20;;;19.00
68510;BMP180;55512;50.102;19.958;2023-09-19T02:48:20;98085.60;;;19.00
68510;BMP180;55512;50.102;19.958;2023-09-19T02:50:49;98078.20;;;19.00
68510;BMP180;55512;50.102;19.958;2023-09-19T02:53:15;98079.20;;;19.00
68510;BMP180;55512;50.102;19.958;2023-09-19T02:55:41;98076.00;;;19.00
68510;BMP180;55512;50.102;19.958;2023-09-19T02:58:08;98072.80;;;19.00
68510;BMP180;55512;50.102;19.958;2023-09-19T03:00:36;98074.20;;;19.00
68510;BMP180;55512;50.102;19.958;2023-09-19T03:03:02;98077.80;;;19.00
68510;BMP180;55512;50.102;19.958;2023-09-19T03:05:28;98073.60;;;19.00
68510;BMP180;55512;50.102;19.958;2023-09-19T03:07:56;98067.80;;;19.00
68510;BMP180;55512;50.102;19.958;2023-09-19T03:10:23;98053.60;;;19.00
68510;BMP180;55512;50.102;19.958;2023-09-19T03:12:50;98047.80;;;19.00
68510;BMP180;55512;50.102;19.958;2023-09-19T03:15:16;98044.20;;;19.00
68510;BMP180;55512;50.102;19.958;2023-09-19T03:17:47;98041.20;;;19.00
68510;BMP180;55512;50.102;19.958;2023-09-19T03:20:16;98039.20;;;19.00
68510;BMP180;55512;50.102;19.958;2023-09-19T03:22:46;98035.60;;;19.00
68510;BMP180;55512;50.102;19.958;2023-09-19T03:25:12;98031.80;;;18.90
68510;BMP180;55512;50.102;19.958;2023-09-19T03:27:41;98021.60;;;18.90
68510;BMP180;55512;50.102;19.958;2023-09-19T03:30:08;98019.20;;;18.90
68510;BMP180;55512;50.102;19.958;2023-09-19T03:32:47;98019.60;;;18.90
68510;BMP180;55512;50.102;19.958;2023-09-19T03:35:15;98015.40;;;18.90
68510;BMP180;55512;50.102;19.958;2023-09-19T03:37:42;98014.20;;;18.90
68510;BMP180;55512;50.102;19.958;2023-09-19T03:40:10;98003.20;;;18.90
68510;BMP180;55512;50.102;19.958;2023-09-19T03:42:41;98009.00;;;18.90
68510;BMP180;55512;50.102;19.958;2023-09-19T03:45:08;98005.00;;;18.90
68510;BMP180;55512;50.102;19.958;2023-09-19T03:47:38;98001.60;;;18.90
68510;BMP180;55512;50.102;19.958;2023-09-19T03:50:07;98005.80;;;18.90
68510;BMP180;55512;50.102;19.958;2023-09-19T03:52:36;98006.40;;;18.90
68510;BMP180;55512;50.102;19.958;2023-09-19T03:55:01;98002.80;;;18.90
68510;BMP180;55512;50.102;19.958;2023-09-19T03:57:29;98000.60;;;18.90
68510;BMP180;55512;50.102;19.958;2023-09-19T03:59:55;98003.00;;;18.90
68510;BMP180;55512;50.102;19.958;2023-09-19T04:02:21;98000.40;;;18.90
68510;BMP180;55512;50.102;19.958;2023-09-19T04:04:51;97996.80;;;18.90
68510;BMP180;55512;50.102;19.958;2023-09-19T04:07:18;97990.40;;;18.90
68510;BMP180;55512;50.102;19.958;2023-09-19T04:09:44;97987.80;;;18.90
68510;BMP180;55512;50.102;19.958;2023-09-19T04:12:11;97986.80;;;18.90
68510;BMP180;55512;50.102;19.958;2023-09-19T04:14:37;97988.40;;;18.90
68510;BMP180;55512;50.102;19.958;2023-09-19T04:17:03;97988.20;;;18.90
68510;BMP180;55512;50.102;19.958;2023-09-19T04:19:30;97990.00;;;18.90
68510;BMP180;55512;50.102;19.958;2023-09-19T04:21:56;97992.80;;;18.96
68510;BMP180;55512;50.102;19.958;2023-09-19T04:24:21;97991.00;;;18.94
68510;BMP180;55512;50.102;19.958;2023-09-19T04:26:46;97990.00;;;18.90
68510;BMP180;55512;50.102;19.958;2023-09-19T04:29:12;97988.80;;;18.90
68510;BMP180;55512;50.102;19.958;2023-09-19T04:31:40;97987.80;;;18.90
68510;BMP180;55512;50.102;19.958;2023-09-19T04:34:06;97987.00;;;18.90
68510;BMP180;55512;50.102;19.958;2023-09-19T04:36:35;97987.00;;;18.90
68510;BMP180;55512;50.102;19.958;2023-09-19T04:39:03;97985.00;;;18.90
68510;BMP180;55512;50.102;19.958;2023-09-19T04:41:32;97985.00;;;18.90
68510;BMP180;55512;50.102;19.958;2023-09-19T04:43:58;97987.20;;;18.90
68510;BMP180;55512;50.102;19.958;2023-09-19T04:46:23;97988.20;;;18.90
68510;BMP180;55512;50.102;19.958;2023-09-19T04:48:49;97995.00;;;18.90
68510;BMP180;55512;50.102;19.958;2023-09-19T04:51:14;98004.00;;;18.90
68510;BMP180;55512;50.102;19.958;2023-09-19T04:53:40;98006.20;;;18.80
68510;BMP180;55512;50.102;19.958;2023-09-19T04:56:06;98012.20;;;18.80
68510;BMP180;55512;50.102;19.958;2023-09-19T04:58:33;98017.20;;;18.80
68510;BMP180;55512;50.102;19.958;2023-09-19T05:00:59;98016.20;;;18.72
68510;BMP180;55512;50.102;19.958;2023-09-19T05:03:25;98020.20;;;18.70
68510;BMP180;55512;50.102;19.958;2023-09-19T05:05:50;98016.40;;;18.60
68510;BMP180;55512;50.102;19.958;2023-09-19T05:08:15;98015.60;;;18.50
68510;BMP180;55512;50.102;19.958;2023-09-19T05:10:41;98010.00;;;18.50
68510;BMP180;55512;50.102;19.958;2023-09-19T05:13:07;98010.40;;;18.50
68510;BMP180;55512;50.102;19.958;2023-09-19T05:15:35;98006.00;;;18.50
68510;BMP180;55512;50.102;19.958;2023-09-19T05:18:02;98001.60;;;18.50
68510;BMP180;55512;50.102;19.958;2023-09-19T05:20:28;98000.00;;;18.50
68510;BMP180;55512;50.102;19.958;2023-09-19T05:23:05;97998.20;;;18.60
68510;BMP180;55512;50.102;19.958;2023-09-19T05:25:34;97995.00;;;18.60
68510;BMP180;55512;50.102;19.958;2023-09-19T05:28:09;97995.80;;;18.66
68510;BMP180;55512;50.102;19.958;2023-09-19T05:30:37;97998.60;;;18.70
68510;BMP180;55512;50.102;19.958;2023-09-19T05:33:04;97999.20;;;18.74
68510;BMP180;55512;50.102;19.958;2023-09-19T05:35:31;98009.20;;;18.80
68510;BMP180;55512;50.102;19.958;2023-09-19T05:37:57;98013.80;;;18.80
68510;BMP180;55512;50.102;19.958;2023-09-19T05:40:24;98018.80;;;18.82
68510;BMP180;55512;50.102;19.958;2023-09-19T05:42:50;98028.40;;;18.90
68510;BMP180;55512;50.102;19.958;2023-09-19T05:45:18;98033.00;;;18.90
68510;BMP180;55512;50.102;19.958;2023-09-19T05:47:49;98034.80;;;18.80
68510;BMP180;55512;50.102;19.958;2023-09-19T05:50:15;98037.80;;;18.80
68510;BMP180;55512;50.102;19.958;2023-09-19T05:52:41;98037.80;;;18.80
68510;BMP180;55512;50.102;19.958;2023-09-19T05:55:08;98033.80;;;18.80
68510;BMP180;55512;50.102;19.958;2023-09-19T05:57:34;98026.20;;;18.80
68510;BMP180;55512;50.102;19.958;2023-09-19T06:00:00;98032.00;;;18.80
68510;BMP180;55512;50.102;19.958;2023-09-19T06:02:26;98032.80;;;18.80
68510;BMP180;55512;50.102;19.958;2023-09-19T06:04:56;98044.40;;;18.80
68510;BMP180;55512;50.102;19.958;2023-09-19T06:07:22;98048.00;;;18.80
68510;BMP180;55512;50.102;19.958;2023-09-19T06:09:51;98048.20;;;18.80
68510;BMP180;55512;50.102;19.958;2023-09-19T06:12:19;98042.80;;;18.80
68510;BMP180;55512;50.102;19.958;2023-09-19T06:14:44;98050.40;;;18.80
68510;BMP180;55512;50.102;19.958;2023-09-19T06:17:10;98056.00;;;18.80
68510;BMP180;55512;50.102;19.958;2023-09-19T06:19:35;98048.60;;;18.80
68510;BMP180;55512;50.102;19.958;2023-09-19T06:22:01;98045.80;;;18.80
68510;BMP180;55512;50.102;19.958;2023-09-19T06:24:27;98057.00;;;18.80
68510;BMP180;55512;50.102;19.958;2023-09-19T06:26:53;98052.60;;;18.80
68510;BMP180;55512;50.102;19.958;2023-09-19T06:29:20;98050.00;;;18.80
68510;BMP180;55512;50.102;19.958;2023-09-19T06:31:46;98046.80;;;18.80
68510;BMP180;55512;50.102;19.958;2023-09-19T06:34:12;98036.80;;;18.80
68510;BMP180;55512;50.102;19.958;2023-09-19T06:36:41;98043.80;;;18.80
68510;BMP180;55512;50.102;19.958;2023-09-19T06:39:06;98047.80;;;18.80
68510;BMP180;55512;50.102;19.958;2023-09-19T06:41:37;98039.40;;;18.80
68510;BMP180;55512;50.102;19.958;2023-09-19T06:44:04;98043.60;;;18.80
68510;BMP180;55512;50.102;19.958;2023-09-19T06:46:30;98045.80;;;18.80
68510;BMP180;55512;50.102;19.958;2023-09-19T06:49:00;98046.80;;;18.80
68510;BMP180;55512;50.102;19.958;2023-09-19T06:51:26;98046.80;;;18.80
68510;BMP180;55512;50.102;19.958;2023-09-19T06:53:51;98053.40;;;18.80
68510;BMP180;55512;50.102;19.958;2023-09-19T06:56:19;98052.00;;;18.82
68510;BMP180;55512;50.102;19.958;2023-09-19T06:58:49;98056.00;;;18.88
68510;BMP180;55512;50.102;19.958;2023-09-19T07:01:15;98062.00;;;18.90
68510;BMP180;55512;50.102;19.958;2023-09-19T07:03:40;98066.60;;;18.84
68510;BMP180;55512;50.102;19.958;2023-09-19T07:06:06;98072.00;;;18.80
68510;BMP180;55512;50.102;19.958;2023-09-19T07:08:31;98072.40;;;18.80
68510;BMP180;55512;50.102;19.958;2023-09-19T07:10:56;98075.20;;;18.80
68510;BMP180;55512;50.102;19.958;2023-09-19T07:13:22;98078.60;;;18.80
68510;BMP180;55512;50.102;19.958;2023-09-19T07:15:47;98081.60;;;18.80
68510;BMP180;55512;50.102;19.958;2023-09-19T07:18:16;98081.40;;;18.80
68510;BMP180;55512;50.102;19.958;2023-09-19T07:20:45;98083.40;;;18.80
68510;BMP180;55512;50.102;19.958;2023-09-19T07:23:19;98082.00;;;18.84
68510;BMP180;55512;50.102;19.958;2023-09-19T07:25:47;98085.20;;;18.90
68510;BMP180;55512;50.102;19.958;2023-09-19T07:28:12;98081.80;;;18.90
68510;BMP180;55512;50.102;19.958;2023-09-19T07:30:38;98082.20;;;18.90
68510;BMP180;55512;50.102;19.958;2023-09-19T07:33:05;98082.80;;;18.98
68510;BMP180;55512;50.102;19.958;2023-09-19T07:35:31;98082.00;;;19.00
68510;BMP180;55512;50.102;19.958;2023-09-19T07:37:57;98083.20;;;19.00
68510;BMP180;55512;50.102;19.958;2023-09-19T07:40:24;98087.40;;;19.00
68510;BMP180;55512;50.102;19.958;2023-09-19T07:42:57;98092.80;;;19.06
68510;BMP180;55512;50.102;19.958;2023-09-19T07:45:28;98095.00;;;19.00
68510;BMP180;55512;50.102;19.958;2023-09-19T07:47:55;98100.00;;;19.00
68510;BMP180;55512;50.102;19.958;2023-09-19T07:50:21;98097.80;;;19.00
68510;BMP180;55512;50.102;19.958;2023-09-19T07:52:49;98096.00;;;19.00
68510;BMP180;55512;50.102;19.958;2023-09-19T07:55:18;98092.00;;;19.00
68510;BMP180;55512;50.102;19.958;2023-09-19T07:57:45;98094.00;;;19.00
68510;BMP180;55512;50.102;19.958;2023-09-19T08:00:12;98095.60;;;19.00
68510;BMP180;55512;50.102;19.958;2023-09-19T08:02:39;98095.00;;;19.00
68510;BMP180;55512;50.102;19.958;2023-09-19T08:05:06;98100.60;;;19.00
68510;BMP180;55512;50.102;19.958;2023-09-19T08:07:36;98106.80;;;19.00
68510;BMP180;55512;50.102;19.958;2023-09-19T08:10:03;98106.80;;;19.00
68510;BMP180;55512;50.102;19.958;2023-09-19T08:12:29;98111.80;;;18.90
68510;BMP180;55512;50.102;19.958;2023-09-19T08:14:55;98113.40;;;18.88
68510;BMP180;55512;50.102;19.958;2023-09-19T08:17:21;98116.00;;;18.80
68510;BMP180;55512;50.102;19.958;2023-09-19T08:19:49;98117.60;;;18.80
68510;BMP180;55512;50.102;19.958;2023-09-19T08:22:19;98133.40;;;18.80
68510;BMP180;55512;50.102;19.958;2023-09-19T08:24:44;98130.20;;;18.70
68510;BMP180;55512;50.102;19.958;2023-09-19T08:27:11;98134.20;;;18.70
68510;BMP180;55512;50.102;19.958;2023-09-19T08:29:37;98137.40;;;18.58
68510;BMP180;55512;50.102;19.958;2023-09-19T08:32:04;98145.00;;;18.50
68510;BMP180;55512;50.102;19.958;2023-09-19T08:34:29;98150.80;;;18.40
68510;BMP180;55512;50.102;19.958;2023-09-19T08:36:57;98163.40;;;18.30
68510;BMP180;55512;50.102;19.958;2023-09-19T08:39:24;98158.60;;;18.28
68510;BMP180;55512;50.102;19.958;2023-09-19T08:42:01;98170.00;;;18.20
68510;BMP180;55512;50.102;19.958;2023-09-19T08:44:28;98163.00;;;18.12
68510;BMP180;55512;50.102;19.958;2023-09-19T08:47:40;98169.20;;;18.10
68510;BMP180;55512;50.102;19.958;2023-09-19T08:50:30;98176.00;;;18.10
68510;BMP180;55512;50.102;19.958;2023-09-19T08:53:00;98186.60;;;18.10
68510;BMP180;55512;50.102;19.958;2023-09-19T08:55:30;98173.80;;;18.08
68510;BMP180;55512;50.102;19.958;2023-09-19T08:58:03;98180.00;;;18.00
68510;BMP180;55512;50.102;19.958;2023-09-19T09:00:29;98190.60;;;18.00
68510;BMP180;55512;50.102;19.958;2023-09-19T09:02:57;98186.80;;;18.00
68510;BMP180;55512;50.102;19.958;2023-09-19T09:05:24;98195.40;;;18.00
68510;BMP180;55512;50.102;19.958;2023-09-19T09:07:52;98181.40;;;17.98
68510;BMP180;55512;50.102;19.958;2023-09-19T09:10:20;98193.40;;;18.00
68510;BMP180;55512;50.102;19.958;2023-09-19T09:12:51;98193.40;;;17.96
68510;BMP180;55512;50.102;19.958;2023-09-19T09:15:19;98196.20;;;18.00
68510;BMP180;55512;50.102;19.958;2023-09-19T09:17:47;98209.20;;;18.00
68510;BMP180;55512;50.102;19.958;2023-09-19T09:20:17;98208.20;;;17.90
68510;BMP180;55512;50.102;19.958;2023-09-19T09:22:55;98210.40;;;17.90
68510;BMP180;55512;50.102;19.958;2023-09-19T09:25:22;98220.20;;;17.90
68510;BMP180;55512;50.102;19.958;2023-09-19T09:28:01;98222.40;;;17.92
68510;BMP180;55512;50.102;19.958;2023-09-19T09:30:36;98222.40;;;17.90
68510;BMP180;55512;50.102;19.958;2023-09-19T09:33:10;98221.60;;;18.00
68510;BMP180;55512;50.102;19.958;2023-09-19T09:35:57;98231.60;;;18.00
68510;BMP180;55512;50.102;19.958;2023-09-19T09:38:28;98233.00;;;18.00
68510;BMP180;55512;50.102;19.958;2023-09-19T09:40:59;98237.20;;;18.10
68510;BMP180;55512;50.102;19.958;2023-09-19T09:43:39;98241.80;;;18.10
68510;BMP180;55512;50.102;19.958;2023-09-19T09:46:11;98247.20;;;18.20
68510;BMP180;55512;50.102;19.958;2023-09-19T09:49:02;98249.20;;;18.20
68510;BMP180;55512;50.102;19.958;2023-09-19T09:52:00;98251.40;;;18.20
68510;BMP180;55512;50.102;19.958;2023-09-19T09:54:31;98256.80;;;18.30
68510;BMP180;55512;50.102;19.958;2023-09-19T09:57:05;98256.60;;;18.30
68510;BMP180;55512;50.102;19.958;2023-09-19T09:59:50;98260.20;;;18.36
68510;BMP180;55512;50.102;19.958;2023-09-19T10:02:24;98260.80;;;18.40
68510;BMP180;55512;50.102;19.958;2023-09-19T10:04:55;98263.40;;;18.48
68510;BMP180;55512;50.102;19.958;2023-09-19T10:07:31;98269.60;;;18.50
68510;BMP180;55512;50.102;19.958;2023-09-19T10:10:37;98273.80;;;18.54
68510;BMP180;55512;50.102;19.958;2023-09-19T10:13:20;98283.00;;;18.60
68510;BMP180;55512;50.102;19.958;2023-09-19T10:15:51;98286.00;;;18.60
68510;BMP180;55512;50.102;19.958;2023-09-19T10:18:25;98290.60;;;18.60
68510;BMP180;55512;50.102;19.958;2023-09-19T10:20:52;98292.20;;;18.60
68510;BMP180;55512;50.102;19.958;2023-09-19T10:23:20;98299.60;;;18.60
68510;BMP180;55512;50.102;19.958;2023-09-19T10:25:50;98300.20;;;18.60
68510;BMP180;55512;50.102;19.958;2023-09-19T10:28:17;98305.40;;;18.60
68510;BMP180;55512;50.102;19.958;2023-09-19T10:30:49;98307.00;;;18.60
68510;BMP180;55512;50.102;19.958;2023-09-19T10:33:23;98309.80;;;18.50
68510;BMP180;55512;50.102;19.958;2023-09-19T10:35:53;98306.40;;;18.50
68510;BMP180;55512;50.102;19.958;2023-09-19T10:38:24;98315.80;;;18.50
68510;BMP180;55512;50.102;19.958;2023-09-19T10:40:55;98323.20;;;18.50
68510;BMP180;55512;50.102;19.958;2023-09-19T10:43:32;98319.00;;;18.50
68510;BMP180;55512;50.102;19.958;2023-09-19T10:46:06;98317.60;;;18.44
68510;BMP180;55512;50.102;19.958;2023-09-19T10:48:32;98316.00;;;18.50
68510;BMP180;55512;50.102;19.958;2023-09-19T10:53:47;98327.40;;;18.50
68510;BMP180;55512;50.102;19.958;2023-09-19T10:56:31;98323.60;;;18.54
68510;BMP180;55512;50.102;19.958;2023-09-19T10:59:09;98331.60;;;18.60
68510;BMP180;55512;50.102;19.958;2023-09-19T11:02:17;98333.80;;;18.54
68510;BMP180;55512;50.102;19.958;2023-09-19T11:04:43;98334.20;;;18.60
68510;BMP180;55512;50.102;19.958;2023-09-19T11:07:14;98334.40;;;18.60
68510;BMP180;55512;50.102;19.958;2023-09-19T11:09:53;98339.00;;;18.60
68510;BMP180;55512;50.102;19.958;2023-09-19T11:15:00;98338.60;;;18.70
68510;BMP180;55512;50.102;19.958;2023-09-19T11:20:23;98341.20;;;18.60
68510;BMP180;55512;50.102;19.958;2023-09-19T11:30:51;98343.20;;;18.70
68510;BMP180;55512;50.102;19.958;2023-09-19T11:33:31;98339.20;;;18.70
68510;BMP180;55512;50.102;19.958;2023-09-19T11:36:13;98342.80;;;18.70
68510;BMP180;55512;50.102;19.958;2023-09-19T11:43:49;98347.40;;;18.70
68510;BMP180;55512;50.102;19.958;2023-09-19T11:46:17;98345.60;;;18.70
68510;BMP180;55512;50.102;19.958;2023-09-19T11:48:48;98347.80;;;18.70
68510;BMP180;55512;50.102;19.958;2023-09-19T11:51:23;98351.20;;;18.70
68510;BMP180;55512;50.102;19.958;2023-09-19T11:53:55;98347.40;;;18.70
68510;BMP180;55512;50.102;19.958;2023-09-19T11:56:23;98352.80;;;18.70
68510;BMP180;55512;50.102;19.958;2023-09-19T11:58:52;98352.60;;;18.70
68510;BMP180;55512;50.102;19.958;2023-09-19T12:01:31;98351.80;;;18.70
68510;BMP180;55512;50.102;19.958;2023-09-19T12:03:59;98355.80;;;18.70
68510;BMP180;55512;50.102;19.958;2023-09-19T12:06:27;98350.20;;;18.70
68510;BMP180;55512;50.102;19.958;2023-09-19T12:08:55;98352.40;;;18.70
68510;BMP180;55512;50.102;19.958;2023-09-19T12:11:23;98357.40;;;18.78
68510;BMP180;55512;50.102;19.958;2023-09-19T12:13:49;98359.00;;;18.78
68510;BMP180;55512;50.102;19.958;2023-09-19T12:16:21;98364.00;;;18.70
68510;BMP180;55512;50.102;19.958;2023-09-19T12:18:49;98361.20;;;18.70
68510;BMP180;55512;50.102;19.958;2023-09-19T12:21:31;98368.20;;;18.70
68510;BMP180;55512;50.102;19.958;2023-09-19T12:26:40;98367.80;;;18.70
68510;BMP180;55512;50.102;19.958;2023-09-19T12:29:20;98370.80;;;18.70
68510;BMP180;55512;50.102;19.958;2023-09-19T12:31:55;98368.00;;;18.70
68510;BMP180;55512;50.102;19.958;2023-09-19T12:34:31;98369.80;;;18.78
68510;BMP180;55512;50.102;19.958;2023-09-19T12:37:15;98373.80;;;18.70
68510;BMP180;55512;50.102;19.958;2023-09-19T12:39:47;98371.80;;;18.70
68510;BMP180;55512;50.102;19.958;2023-09-19T12:42:26;98372.20;;;18.70
68510;BMP180;55512;50.102;19.958;2023-09-19T12:44:55;98370.60;;;18.70
68510;BMP180;55512;50.102;19.958;2023-09-19T12:47:23;98377.20;;;18.70
68510;BMP180;55512;50.102;19.958;2023-09-19T12:50:13;98365.00;;;18.80
68510;BMP180;55512;50.102;19.958;2023-09-19T12:52:42;98370.60;;;18.80
68510;BMP180;55512;50.102;19.958;2023-09-19T12:58:15;98375.00;;;18.82
68510;BMP180;55512;50.102;19.958;2023-09-19T13:00:45;98373.40;;;18.90
68510;BMP180;55512;50.102;19.958;2023-09-19T13:03:25;98373.80;;;19.00
68510;BMP180;55512;50.102;19.958;2023-09-19T13:08:26;98374.80;;;19.04
68510;BMP180;55512;50.102;19.958;2023-09-19T13:13:49;98379.40;;;19.10
68510;BMP180;55512;50.102;19.958;2023-09-19T13:16:20;98380.20;;;19.10
68510;BMP180;55512;50.102;19.958;2023-09-19T13:18:50;98375.40;;;19.10
68510;BMP180;55512;50.102;19.958;2023-09-19T13:21:31;98375.40;;;19.14
68510;BMP180;55512;50.102;19.958;2023-09-19T13:24:25;98384.60;;;19.20
68510;BMP180;55512;50.102;19.958;2023-09-19T13:26:56;98385.80;;;19.20
68510;BMP180;55512;50.102;19.958;2023-09-19T13:29:22;98388.40;;;19.30
68510;BMP180;55512;50.102;19.958;2023-09-19T13:31:49;98382.00;;;19.30
68510;BMP180;55512;50.102;19.958;2023-09-19T13:34:15;98388.40;;;19.40
68510;BMP180;55512;50.102;19.958;2023-09-19T13:36:42;98390.80;;;19.40
68510;BMP180;55512;50.102;19.958;2023-09-19T13:39:08;98400.40;;;19.40
68510;BMP180;55512;50.102;19.958;2023-09-19T13:41:35;98400.60;;;19.36
68510;BMP180;55512;50.102;19.958;2023-09-19T13:44:03;98401.60;;;19.30
68510;BMP180;55512;50.102;19.958;2023-09-19T13:46:30;98399.20;;;19.30
68510;BMP180;55512;50.102;19.958;2023-09-19T13:49:01;98406.40;;;19.30
68510;BMP180;55512;50.102;19.958;2023-09-19T13:51:30;98402.20;;;19.30
68510;BMP180;55512;50.102;19.958;2023-09-19T13:53:56;98403.00;;;19.30
68510;BMP180;55512;50.102;19.958;2023-09-19T13:56:22;98403.00;;;19.40
68510;BMP180;55512;50.102;19.958;2023-09-19T13:58:47;98402.80;;;19.40
68510;BMP180;55512;50.102;19.958;2023-09-19T14:01:13;98401.80;;;19.36
68510;BMP180;55512;50.102;19.958;2023-09-19T14:03:40;98399.40;;;19.30
68510;BMP180;55512;50.102;19.958;2023-09-19T14:06:05;98400.20;;;19.30
68510;BMP180;55512;50.102;19.958;2023-09-19T14:08:31;98401.40;;;19.40
68510;BMP180;55512;50.102;19.958;2023-09-19T14:10:58;98402.00;;;19.40
68510;BMP180;55512;50.102;19.958;2023-09-19T14:13:23;98402.80;;;19.40
68510;BMP180;55512;50.102;19.958;2023-09-19T14:15:50;98400.00;;;19.48
68510;BMP180;55512;50.102;19.958;2023-09-19T14:18:16;98399.20;;;19.50
68510;BMP180;55512;50.102;19.958;2023-09-19T14:20:41;98400.60;;;19.60
68510;BMP180;55512;50.102;19.958;2023-09-19T14:23:07;98401.60;;;19.70
68510;BMP180;55512;50.102;19.958;2023-09-19T14:25:36;98402.20;;;19.80
68510;BMP180;55512;50.102;19.958;2023-09-19T14:28:04;98406.60;;;20.08
68510;BMP180;55512;50.102;19.958;2023-09-19T14:30:30;98408.40;;;20.30
68510;BMP180;55512;50.102;19.958;2023-09-19T14:32:57;98402.00;;;20.38
68510;BMP180;55512;50.102;19.958;2023-09-19T14:35:23;98402.20;;;20.50
68510;BMP180;55512;50.102;19.958;2023-09-19T14:37:49;98407.80;;;20.70
68510;BMP180;55512;50.102;19.958;2023-09-19T14:40:14;98407.00;;;20.92
68510;BMP180;55512;50.102;19.958;2023-09-19T14:42:43;98409.20;;;21.22
68510;BMP180;55512;50.102;19.958;2023-09-19T14:45:10;98415.20;;;21.54
68510;BMP180;55512;50.102;19.958;2023-09-19T14:47:37;98419.80;;;21.70
68510;BMP180;55512;50.102;19.958;2023-09-19T14:50:04;98425.00;;;21.58
68510;BMP180;55512;50.102;19.958;2023-09-19T14:52:33;98426.40;;;21.34
68510;BMP180;55512;50.102;19.958;2023-09-19T14:55:00;98420.40;;;21.20